createdAt,value
2023-05-05T00:01:28.236Z,4.20
2023-05-05T00:03:55.236Z,3.85
2023-05-05T00:06:22.110Z,4.22
2023-05-05T00:08:48.919Z,4.38
2023-05-05T00:11:15.803Z,4.43
2023-05-05T00:13:42.679Z,4.03
2023-05-05T00:16:09.601Z,4.55
2023-05-05T00:18:36.493Z,4.43
2023-05-05T00:21:04.688Z,4.43
2023-05-05T00:23:31.616Z,4.75
2023-05-05T00:25:58.464Z,4.85
2023-05-05T00:28:25.303Z,4.40
2023-05-05T00:30:52.268Z,4.90
2023-05-05T00:33:19.108Z,4.32
2023-05-05T00:35:45.991Z,4.38
2023-05-05T00:38:12.926Z,4.93
2023-05-05T00:40:39.776Z,4.97
2023-05-05T00:43:08.400Z,5.00
2023-05-05T00:45:37.511Z,4.90
2023-05-05T00:48:05.003Z,4.40
2023-05-05T00:50:31.986Z,4.70
2023-05-05T00:53:06.685Z,4.82
2023-05-05T00:55:35.042Z,5.03
2023-05-05T00:58:04.557Z,5.00
2023-05-05T01:00:31.838Z,5.28
2023-05-05T01:02:59.623Z,5.60
2023-05-05T01:05:32.224Z,5.35
2023-05-05T01:08:06.124Z,5.13
2023-05-05T01:10:33.158Z,4.90
2023-05-05T01:13:21.547Z,5.03
2023-05-05T01:16:01.553Z,5.00
2023-05-05T01:19:09.600Z,4.75
2023-05-05T01:21:44.466Z,4.18
2023-05-05T01:24:30.041Z,5.25
2023-05-05T01:27:15.463Z,4.72
2023-05-05T01:29:54.717Z,5.03
2023-05-05T01:32:27.138Z,4.70
2023-05-05T01:34:57.943Z,5.00
2023-05-05T01:37:35.641Z,5.40
2023-05-05T01:40:08.841Z,5.05
2023-05-05T01:42:38.172Z,4.80
2023-05-05T01:45:09.446Z,5.28
2023-05-05T01:47:39.264Z,5.28
2023-05-05T01:50:08.523Z,5.40
2023-05-05T01:52:37.709Z,5.18
2023-05-05T01:55:06.633Z,5.80
2023-05-05T01:57:36.094Z,4.57
2023-05-05T02:00:04.593Z,5.13
2023-05-05T02:02:35.062Z,5.50
2023-05-05T02:05:03.432Z,5.10
2023-05-05T02:07:33.733Z,5.70
2023-05-05T02:10:04.171Z,5.50
2023-05-05T02:12:32.472Z,5.80
2023-05-05T02:15:01.611Z,5.93
2023-05-05T02:17:30.462Z,5.35
2023-05-05T02:19:59.353Z,5.13
2023-05-05T02:22:26.279Z,5.88
2023-05-05T02:24:53.891Z,5.38
2023-05-05T02:27:23.193Z,5.47
2023-05-05T02:29:55.209Z,5.13
2023-05-05T02:32:39.679Z,5.43
2023-05-05T02:35:19.998Z,5.40
2023-05-05T02:37:51.219Z,5.43
2023-05-05T02:40:24.544Z,5.70
2023-05-05T02:42:54.443Z,5.70
2023-05-05T02:45:22.811Z,5.40
2023-05-05T02:47:49.678Z,5.53
2023-05-05T02:50:17.106Z,6.13
2023-05-05T02:52:44.553Z,5.82
2023-05-05T02:55:11.636Z,6.00
2023-05-05T02:58:16.735Z,5.75
2023-05-05T03:00:57.145Z,5.70
2023-05-05T03:03:50.753Z,5.32
2023-05-05T03:06:25.074Z,5.73
2023-05-05T03:09:20.750Z,5.10
2023-05-05T03:12:07.577Z,6.13
2023-05-05T03:14:47.896Z,5.38
2023-05-05T03:17:23.859Z,5.78
2023-05-05T03:19:55.976Z,5.93
2023-05-05T03:22:28.163Z,5.32
2023-05-05T03:25:00.893Z,5.40
2023-05-05T03:27:35.226Z,5.53
2023-05-05T03:30:10.192Z,5.25
2023-05-05T03:32:43.121Z,5.60
2023-05-05T03:35:19.116Z,5.22
2023-05-05T03:37:55.180Z,6.20
2023-05-05T03:40:40.478Z,6.15
2023-05-05T03:43:17.689Z,5.82
2023-05-05T03:45:53.975Z,5.45
2023-05-05T03:48:27.038Z,6.00
2023-05-05T03:51:02.339Z,6.38
2023-05-05T03:53:33.230Z,6.30
2023-05-05T03:56:03.721Z,5.95
2023-05-05T03:58:40.380Z,5.95
2023-05-05T04:01:07.539Z,5.80
2023-05-05T04:03:36.753Z,5.95
2023-05-05T04:06:03.828Z,6.00
2023-05-05T04:08:30.659Z,6.03
2023-05-05T04:10:58.723Z,6.22
2023-05-05T04:13:25.576Z,5.80
2023-05-05T04:15:52.532Z,6.72
2023-05-05T04:18:19.398Z,6.90
2023-05-05T04:20:46.885Z,6.35
2023-05-05T04:23:13.769Z,5.88
2023-05-05T04:25:40.835Z,6.03
2023-05-05T04:28:07.637Z,5.97
2023-05-05T04:30:34.443Z,6.22
2023-05-05T04:33:02.724Z,6.75
2023-05-05T04:35:29.611Z,5.93
2023-05-05T04:37:56.465Z,6.20
2023-05-05T04:40:23.419Z,6.53
2023-05-05T04:42:50.273Z,5.88
2023-05-05T04:45:17.730Z,7.05
2023-05-05T04:47:45.633Z,6.32
2023-05-05T04:50:12.805Z,6.63
2023-05-05T04:52:40.024Z,6.32
2023-05-05T04:55:08.998Z,6.30
2023-05-05T04:57:35.906Z,6.55
2023-05-05T05:00:05.611Z,6.72
2023-05-05T05:02:32.815Z,6.60
2023-05-05T05:05:07.507Z,6.80
2023-05-05T05:07:34.383Z,7.20
2023-05-05T05:10:01.200Z,6.53
2023-05-05T05:12:28.106Z,7.22
2023-05-05T05:14:58.606Z,7.57
2023-05-05T05:17:26.921Z,6.85
2023-05-05T05:19:56.235Z,6.65
2023-05-05T05:22:25.134Z,7.25
2023-05-05T05:24:52.759Z,6.72
2023-05-05T05:27:19.667Z,6.43
2023-05-05T05:29:48.394Z,6.63
2023-05-05T05:32:18.548Z,6.32
2023-05-05T05:34:45.655Z,5.72
2023-05-05T05:37:12.756Z,6.30
2023-05-05T05:39:43.502Z,7.43
2023-05-05T05:42:10.721Z,6.97
2023-05-05T05:44:37.566Z,6.60
2023-05-05T05:47:04.466Z,6.18
2023-05-05T05:49:34.372Z,5.82
2023-05-05T05:52:01.148Z,6.60
2023-05-05T05:54:29.064Z,6.07
2023-05-05T05:56:55.923Z,5.85
2023-05-05T05:59:23.131Z,6.28
2023-05-05T06:01:50.044Z,6.68
2023-05-05T06:04:17.056Z,6.05
2023-05-05T06:06:43.996Z,6.45
2023-05-05T06:09:11.895Z,6.40
2023-05-05T06:11:38.919Z,6.43
2023-05-05T06:14:05.821Z,6.05
2023-05-05T06:16:32.744Z,7.20
2023-05-05T06:19:00.751Z,7.18
2023-05-05T06:21:28.009Z,7.43
2023-05-05T06:23:54.759Z,6.68
2023-05-05T06:26:27.517Z,6.93
2023-05-05T06:29:28.346Z,6.63
2023-05-05T06:31:55.461Z,7.70
2023-05-05T06:34:22.335Z,6.88
2023-05-05T06:36:49.206Z,6.60
2023-05-05T06:39:16.393Z,7.40
2023-05-05T06:41:44.772Z,6.47
2023-05-05T06:44:12.442Z,6.82
2023-05-05T06:46:39.427Z,6.75
2023-05-05T06:49:06.285Z,6.72
2023-05-05T06:51:33.435Z,7.25
2023-05-05T06:54:00.479Z,7.05
2023-05-05T06:56:27.805Z,5.93
2023-05-05T06:58:56.395Z,5.80
2023-05-05T07:01:23.705Z,5.60
2023-05-05T07:03:52.573Z,5.85
2023-05-05T07:06:20.812Z,7.38
2023-05-05T07:08:47.643Z,6.25
2023-05-05T07:11:14.699Z,6.55
2023-05-05T07:13:42.089Z,6.50
2023-05-05T07:16:09.001Z,6.50
2023-05-05T07:18:36.014Z,6.57
2023-05-05T07:21:07.120Z,6.50
2023-05-05T07:23:34.460Z,9.45
2023-05-05T07:26:01.418Z,6.82
2023-05-05T07:28:28.492Z,8.27
2023-05-05T07:30:55.430Z,8.82
2023-05-05T07:33:22.572Z,9.73
2023-05-05T07:35:49.396Z,11.38
2023-05-05T07:38:18.548Z,12.75
2023-05-05T07:40:45.330Z,12.18
2023-05-05T07:43:12.310Z,10.60
2023-05-05T07:45:39.325Z,10.00
2023-05-05T07:48:06.346Z,10.95
2023-05-05T07:50:34.407Z,8.93
2023-05-05T07:53:10.783Z,12.27
2023-05-05T07:55:41.343Z,12.43
2023-05-05T07:58:08.663Z,10.20
2023-05-05T08:00:35.790Z,11.00
2023-05-05T08:03:03.263Z,11.43
2023-05-05T08:05:30.238Z,11.63
2023-05-05T08:07:59.665Z,9.63
2023-05-05T08:10:26.742Z,10.32
2023-05-05T08:12:55.094Z,11.63
2023-05-05T08:15:22.123Z,11.10
2023-05-05T08:17:51.519Z,13.07
2023-05-05T08:20:20.105Z,12.10
2023-05-05T08:22:47.380Z,12.73
2023-05-05T08:25:14.564Z,12.07
2023-05-05T08:27:43.140Z,12.25
2023-05-05T08:30:11.143Z,9.63
2023-05-05T08:32:38.713Z,10.63
2023-05-05T08:35:07.453Z,11.05
2023-05-05T08:37:34.733Z,12.40
2023-05-05T08:40:02.154Z,11.60
2023-05-05T08:42:37.807Z,11.18
2023-05-05T08:45:08.142Z,11.95
2023-05-05T08:47:39.516Z,11.60
2023-05-05T08:50:10.481Z,12.02
2023-05-05T08:52:44.123Z,13.45
2023-05-05T08:55:24.577Z,13.07
2023-05-05T08:57:54.660Z,13.98
2023-05-05T09:00:22.281Z,12.43
2023-05-05T09:02:51.400Z,13.40
2023-05-05T09:05:18.516Z,12.63
2023-05-05T09:07:47.404Z,12.15
2023-05-05T09:10:17.505Z,11.70
2023-05-05T09:12:44.673Z,10.57
2023-05-05T09:15:13.454Z,12.60
2023-05-05T09:17:41.582Z,11.82
2023-05-05T09:20:13.790Z,12.40
2023-05-05T09:22:46.968Z,8.57
2023-05-05T09:25:16.649Z,7.82
2023-05-05T09:27:48.737Z,10.50
2023-05-05T09:30:28.743Z,10.07
2023-05-05T09:32:55.825Z,9.10
2023-05-05T09:35:23.534Z,11.38
2023-05-05T09:37:51.509Z,10.75
2023-05-05T09:40:20.230Z,10.27
2023-05-05T09:42:47.888Z,9.80
2023-05-05T09:45:17.739Z,6.90
2023-05-05T09:47:46.358Z,10.25
2023-05-05T09:50:19.033Z,8.18
2023-05-05T09:53:00.870Z,8.60
2023-05-05T09:55:28.439Z,7.50
2023-05-05T09:57:55.512Z,9.50
2023-05-05T10:00:22.742Z,6.80
2023-05-05T10:02:50.059Z,5.85
2023-05-05T10:05:19.263Z,5.93
2023-05-05T10:07:50.849Z,6.53
2023-05-05T10:10:23.527Z,8.48
2023-05-05T10:12:53.456Z,6.72
2023-05-05T10:15:21.546Z,6.78
2023-05-05T10:20:21.647Z,4.82
2023-05-05T10:22:54.905Z,5.72
2023-05-05T10:25:34.020Z,6.03
2023-05-05T10:28:07.053Z,5.72
2023-05-05T10:30:41.732Z,6.37
2023-05-05T10:33:31.933Z,5.50
2023-05-05T10:36:03.610Z,5.75
2023-05-05T10:38:31.560Z,6.78
2023-05-05T10:41:00.419Z,6.57
2023-05-05T10:43:29.666Z,6.72
2023-05-05T10:45:57.573Z,7.10
2023-05-05T10:48:51.831Z,7.63
2023-05-05T10:51:39.426Z,8.23
2023-05-05T10:54:24.963Z,7.47
2023-05-05T10:56:53.599Z,7.25
2023-05-05T10:59:39.617Z,7.47
2023-05-05T11:02:28.232Z,6.18
2023-05-05T11:05:17.991Z,7.68
2023-05-05T11:07:46.556Z,8.40
2023-05-05T11:10:15.339Z,7.93
2023-05-05T11:13:02.592Z,6.93
2023-05-05T11:15:29.796Z,8.18
2023-05-05T11:17:59.204Z,6.57
2023-05-05T11:20:41.037Z,7.25
2023-05-05T11:23:08.002Z,7.20
2023-05-05T11:25:41.350Z,7.55
2023-05-05T11:28:19.287Z,7.05
2023-05-05T11:30:56.294Z,6.10
2023-05-05T11:33:31.618Z,2.60
2023-05-05T11:36:07.128Z,1.60
2023-05-05T11:39:23.328Z,1.45
2023-05-05T11:42:03.786Z,1.17
2023-05-05T11:44:34.649Z,1.17
2023-05-05T11:47:04.676Z,1.20
2023-05-05T11:49:37.324Z,1.30
2023-05-05T11:52:06.928Z,1.30
2023-05-05T11:54:37.222Z,1.00
2023-05-05T11:57:08.582Z,1.10
2023-05-05T11:59:37.515Z,1.02
2023-05-05T12:02:04.885Z,1.27
2023-05-05T12:04:32.460Z,0.90
2023-05-05T12:06:59.977Z,1.40
2023-05-05T12:09:27.664Z,1.00
2023-05-05T12:11:56.062Z,1.33
2023-05-05T12:14:24.800Z,1.02
2023-05-05T12:16:55.867Z,1.23
2023-05-05T12:19:24.130Z,0.98
2023-05-05T12:21:55.087Z,1.48
2023-05-05T12:24:24.780Z,1.40
2023-05-05T12:26:52.424Z,1.00
2023-05-05T12:29:29.620Z,1.27
2023-05-05T12:31:58.143Z,1.20
2023-05-05T12:34:25.090Z,1.45
2023-05-05T12:36:54.348Z,1.30
2023-05-05T12:39:21.836Z,1.60
2023-05-05T12:41:49.461Z,1.50
2023-05-05T12:44:16.282Z,1.42
2023-05-05T12:46:49.734Z,1.40
2023-05-05T12:49:18.802Z,1.60
2023-05-05T12:51:54.698Z,1.60
2023-05-05T12:54:29.592Z,1.88
2023-05-05T12:56:57.873Z,1.48
2023-05-05T12:59:24.725Z,1.75
2023-05-05T13:01:54.928Z,1.77
2023-05-05T13:04:23.473Z,1.83
2023-05-05T13:07:08.033Z,1.90
2023-05-05T13:09:35.639Z,1.90
2023-05-05T13:12:03.263Z,2.10
2023-05-05T13:14:31.892Z,1.90
2023-05-05T13:16:58.960Z,1.85
2023-05-05T13:19:26.432Z,2.40
2023-05-05T13:21:59.668Z,2.38
2023-05-05T13:24:42.135Z,2.50
2023-05-05T13:27:13.546Z,2.72
2023-05-05T13:29:41.745Z,2.60
2023-05-05T13:32:08.792Z,2.70
2023-05-05T13:34:36.276Z,2.63
2023-05-05T13:37:03.242Z,3.05
2023-05-05T13:39:31.115Z,3.05
2023-05-05T13:41:58.010Z,2.50
2023-05-05T13:44:26.234Z,4.30
2023-05-05T13:46:53.234Z,2.40
2023-05-05T13:49:21.452Z,3.03
2023-05-05T13:51:48.377Z,1.90
2023-05-05T13:54:15.209Z,1.52
2023-05-05T13:56:42.202Z,2.15
2023-05-05T13:59:09.368Z,2.05
2023-05-05T14:01:36.508Z,2.63
2023-05-05T14:04:05.346Z,2.05
2023-05-05T14:06:33.094Z,2.10
2023-05-05T14:09:00.023Z,1.70
2023-05-05T14:11:26.844Z,1.70
2023-05-05T14:13:53.716Z,1.90
2023-05-05T14:16:20.550Z,2.08
2023-05-05T14:18:47.591Z,2.00
2023-05-05T14:28:19.141Z,2.38
2023-05-05T14:37:11.146Z,2.40
2023-05-05T14:51:28.656Z,3.60
2023-05-05T14:54:29.339Z,3.15
2023-05-05T14:57:38.444Z,3.08
2023-05-05T15:00:42.068Z,3.40
2023-05-05T15:06:14.202Z,3.40
2023-05-05T15:08:41.022Z,3.47
2023-05-05T15:11:07.938Z,3.38
2023-05-05T15:13:35.606Z,2.85
2023-05-05T15:16:02.442Z,3.85
2023-05-05T15:18:30.242Z,3.58
2023-05-05T15:20:57.696Z,3.17
2023-05-05T15:23:25.020Z,3.15
2023-05-05T15:25:52.194Z,4.20
2023-05-05T15:28:19.126Z,3.13
2023-05-05T15:30:46.720Z,4.07
2023-05-05T15:33:13.582Z,3.60
2023-05-05T15:35:40.468Z,3.70
2023-05-05T15:38:07.480Z,4.20
2023-05-05T15:40:34.394Z,4.90
2023-05-05T15:43:01.535Z,4.45
2023-05-05T15:45:28.496Z,6.03
2023-05-05T15:47:55.382Z,5.82
2023-05-05T15:50:24.114Z,5.45
2023-05-05T15:53:00.317Z,5.43
2023-05-05T15:55:27.641Z,4.72
2023-05-05T15:57:54.940Z,4.95
2023-05-05T16:00:22.437Z,5.13
2023-05-05T16:02:49.754Z,4.20
2023-05-05T16:05:17.758Z,4.57
2023-05-05T16:07:44.656Z,3.67
2023-05-05T16:10:11.550Z,3.97
2023-05-05T16:12:38.529Z,4.25
2023-05-05T16:15:06.185Z,4.70
2023-05-05T16:17:34.048Z,3.25
2023-05-05T16:20:00.891Z,2.38
2023-05-05T16:22:27.688Z,1.90
2023-05-05T16:24:54.588Z,1.70
2023-05-05T16:27:21.831Z,1.85
2023-05-05T16:29:52.368Z,1.80
2023-05-05T16:32:19.178Z,1.70
2023-05-05T16:34:46.169Z,1.70
2023-05-05T16:37:14.358Z,1.98
2023-05-05T16:39:41.677Z,1.77
2023-05-05T16:42:08.594Z,1.50
2023-05-05T16:44:35.638Z,1.50
2023-05-05T16:47:03.821Z,2.10
2023-05-05T16:49:30.829Z,2.20
2023-05-05T16:51:58.122Z,2.10
2023-05-05T16:54:24.881Z,1.67
2023-05-05T16:56:54.279Z,1.85
2023-05-05T16:59:22.210Z,2.25
2023-05-05T17:01:49.068Z,1.75
2023-05-05T17:04:17.350Z,1.38
2023-05-05T17:06:44.130Z,1.40
2023-05-05T17:09:10.918Z,3.90
2023-05-05T17:11:37.746Z,2.10
2023-05-05T17:14:04.578Z,1.45
2023-05-05T17:16:34.481Z,1.40
2023-05-05T17:19:01.332Z,1.50
2023-05-05T17:21:28.207Z,1.92
2023-05-05T17:23:54.970Z,1.70
2023-05-05T17:26:21.740Z,1.33
2023-05-05T17:28:48.498Z,1.80
2023-05-05T17:31:15.317Z,1.75
2023-05-05T17:33:42.174Z,1.85
2023-05-05T17:36:11.944Z,1.80
2023-05-05T17:38:44.842Z,2.08
2023-05-05T17:41:11.692Z,2.00
2023-05-05T17:43:39.746Z,2.28
2023-05-05T17:46:06.649Z,2.30
2023-05-05T17:48:33.593Z,2.33
2023-05-05T17:51:00.475Z,2.60
2023-05-05T17:53:27.458Z,2.75
2023-05-05T17:55:54.632Z,2.45
2023-05-05T17:58:21.486Z,2.80
2023-05-05T18:00:48.338Z,2.40
2023-05-05T18:03:15.258Z,2.60
2023-05-05T18:05:42.189Z,2.47
2023-05-05T18:08:09.049Z,2.80
2023-05-05T18:10:35.886Z,2.53
2023-05-05T18:13:02.778Z,2.65
2023-05-05T18:15:32.643Z,2.13
2023-05-05T18:17:59.566Z,2.30
2023-05-05T18:20:27.660Z,2.20
2023-05-05T18:22:54.797Z,2.08
2023-05-05T18:25:21.682Z,2.05
2023-05-05T18:27:48.536Z,2.33
2023-05-05T18:30:17.780Z,2.13
2023-05-05T18:32:48.905Z,2.50
2023-05-05T18:35:17.398Z,2.25
2023-05-05T18:37:45.389Z,2.35
2023-05-05T18:40:17.276Z,2.30
2023-05-05T18:42:44.125Z,2.13
2023-05-05T18:45:11.390Z,2.55
2023-05-05T18:47:40.563Z,2.55
2023-05-05T18:50:11.071Z,2.40
2023-05-05T18:52:37.943Z,2.47
2023-05-05T18:55:05.062Z,2.38
2023-05-05T18:57:32.669Z,2.42
2023-05-05T19:00:00.567Z,2.60
2023-05-05T19:02:27.521Z,2.10
2023-05-05T19:04:57.197Z,2.22
2023-05-05T19:07:34.426Z,2.47
2023-05-05T19:10:04.517Z,2.35
2023-05-05T19:12:31.768Z,2.42
2023-05-05T19:14:58.671Z,2.78
2023-05-05T19:17:25.640Z,2.97
2023-05-05T19:19:52.501Z,2.17
2023-05-05T19:22:20.726Z,2.53
2023-05-05T19:24:47.542Z,3.20
2023-05-05T19:27:16.656Z,2.90
2023-05-05T19:29:44.193Z,2.67
2023-05-05T19:32:11.101Z,2.90
2023-05-05T19:34:37.999Z,2.50
2023-05-05T19:37:04.883Z,2.50
2023-05-05T19:39:31.737Z,2.83
2023-05-05T19:41:58.842Z,2.90
2023-05-05T19:44:25.756Z,2.25
2023-05-05T19:46:53.850Z,2.85
2023-05-05T19:49:20.745Z,2.60
2023-05-05T19:51:49.863Z,2.88
2023-05-05T19:54:16.652Z,3.20
2023-05-05T19:56:43.447Z,2.80
2023-05-05T19:59:10.777Z,3.15
2023-05-05T20:01:37.743Z,3.03
2023-05-05T20:04:04.967Z,3.70
2023-05-05T20:06:32.762Z,3.97
2023-05-05T20:09:00.483Z,4.10
2023-05-05T20:11:29.287Z,2.97
2023-05-05T20:13:57.286Z,3.55
2023-05-05T20:16:24.292Z,3.20
2023-05-05T20:18:52.231Z,3.22
2023-05-05T20:21:19.146Z,3.25
2023-05-05T20:23:46.192Z,3.25
2023-05-05T20:26:13.147Z,3.42
2023-05-05T20:28:41.837Z,3.88
2023-05-05T20:31:10.922Z,3.78
2023-05-05T20:33:37.827Z,3.70
2023-05-05T20:36:05.326Z,3.97
2023-05-05T20:38:32.120Z,4.35
2023-05-05T20:41:00.407Z,4.88
2023-05-05T20:43:28.006Z,4.18
2023-05-05T20:45:54.879Z,4.57
2023-05-05T20:48:21.718Z,4.32
2023-05-05T20:50:48.569Z,4.20
2023-05-05T20:53:19.000Z,4.88
2023-05-05T20:55:48.012Z,4.30
2023-05-05T20:58:14.849Z,4.65
2023-05-05T21:00:41.708Z,4.50
2023-05-05T21:03:08.636Z,4.53
2023-05-05T21:05:36.095Z,9.10
2023-05-05T21:08:02.901Z,5.45
2023-05-05T21:10:34.106Z,5.25
2023-05-05T21:13:04.123Z,4.75
2023-05-05T21:15:32.019Z,6.20
2023-05-05T21:18:00.071Z,6.00
2023-05-05T21:20:26.994Z,5.60
2023-05-05T21:22:54.892Z,6.15
2023-05-05T21:25:22.087Z,5.60
2023-05-05T21:27:50.880Z,6.38
2023-05-05T21:30:17.835Z,5.78
2023-05-05T21:32:44.936Z,4.88
2023-05-05T21:35:12.360Z,5.55
2023-05-05T21:37:39.903Z,6.28
2023-05-05T21:40:11.133Z,5.25
2023-05-05T21:42:38.233Z,6.05
2023-05-05T21:45:05.508Z,6.10
2023-05-05T21:47:32.392Z,5.93
2023-05-05T21:49:59.362Z,5.57
2023-05-05T21:52:26.332Z,5.95
2023-05-05T21:54:53.254Z,6.32
2023-05-05T21:57:20.164Z,6.03
2023-05-05T21:59:46.989Z,6.65
2023-05-05T22:02:13.860Z,5.93
2023-05-05T22:04:43.265Z,5.72
2023-05-05T22:07:10.058Z,6.35
2023-05-05T22:09:37.892Z,6.65
2023-05-05T22:12:05.061Z,5.63
2023-05-05T22:14:31.932Z,6.55
2023-05-05T22:16:58.751Z,6.38
2023-05-05T22:19:25.713Z,7.05
2023-05-05T22:21:52.534Z,6.13
2023-05-05T22:24:19.479Z,6.63
2023-05-05T22:26:46.395Z,6.85
2023-05-05T22:29:13.433Z,6.15
2023-05-05T22:31:40.448Z,6.20
2023-05-05T22:34:08.025Z,6.43
2023-05-05T22:36:34.989Z,6.10
2023-05-05T22:39:01.946Z,6.68
2023-05-05T22:41:28.823Z,6.80
2023-05-05T22:43:56.390Z,6.93
2023-05-05T22:46:24.601Z,7.70
2023-05-05T22:48:52.508Z,8.07
2023-05-05T22:51:20.280Z,8.48
2023-05-05T22:53:47.313Z,8.05
2023-05-05T22:56:14.210Z,8.15
2023-05-05T22:58:41.134Z,9.18
2023-05-05T23:01:08.326Z,9.05
2023-05-05T23:03:35.256Z,8.88
2023-05-05T23:06:02.089Z,8.98
2023-05-05T23:08:28.929Z,9.10
2023-05-05T23:10:56.278Z,9.25
2023-05-05T23:13:23.157Z,8.68
2023-05-05T23:15:50.049Z,9.60
2023-05-05T23:18:16.997Z,9.25
2023-05-05T23:20:43.975Z,9.52
2023-05-05T23:23:10.818Z,9.13
2023-05-05T23:25:37.643Z,10.15
2023-05-05T23:28:04.593Z,11.57
2023-05-05T23:30:31.449Z,9.45
2023-05-05T23:32:58.625Z,10.05
2023-05-05T23:35:26.390Z,9.50
2023-05-05T23:37:53.251Z,9.88
2023-05-05T23:40:20.106Z,10.07
2023-05-05T23:42:46.982Z,9.30
2023-05-05T23:45:14.022Z,8.70
2023-05-05T23:47:40.986Z,8.82
2023-05-05T23:50:08.811Z,9.13
2023-05-05T23:52:35.956Z,8.13
2023-05-05T23:55:02.857Z,9.60
2023-05-05T23:57:29.687Z,8.90
2023-05-05T23:59:56.517Z,8.40
